createdAt,value
2018-09-01T00:00:29.293Z,18.90
2018-09-01T00:02:56.911Z,18.70
2018-09-01T00:05:24.631Z,18.90
2018-09-01T00:07:52.239Z,19.70
2018-09-01T00:10:19.899Z,19.90
2018-09-01T00:12:47.481Z,20.10
2018-09-01T00:15:15.065Z,20.60
2018-09-01T00:17:42.671Z,20.80
2018-09-01T00:20:10.292Z,21.00
2018-09-01T00:22:37.962Z,20.90
2018-09-01T00:25:05.876Z,21.00
2018-09-01T00:27:33.479Z,21.00
2018-09-01T00:30:01.071Z,20.90
2018-09-01T00:32:28.650Z,21.10
2018-09-01T00:34:56.233Z,21.30
2018-09-01T00:37:29.452Z,21.50
2018-09-01T00:39:57.026Z,21.20
2018-09-01T00:42:24.595Z,20.80
2018-09-01T00:44:52.233Z,20.60
2018-09-01T00:47:20.000Z,20.80
2018-09-01T00:49:47.687Z,20.60
2018-09-01T00:52:15.272Z,20.60
2018-09-01T00:54:42.869Z,20.10
2018-09-01T00:57:10.458Z,19.80
2018-09-01T00:59:38.039Z,19.50
2018-09-01T01:02:05.663Z,19.40
2018-09-01T01:04:33.342Z,19.50
2018-09-01T01:07:00.927Z,19.50
2018-09-01T01:09:28.514Z,19.70
2018-09-01T01:11:56.130Z,19.40
2018-09-01T01:14:23.832Z,19.40
2018-09-01T01:16:51.527Z,19.50
2018-09-01T01:19:19.104Z,19.10
2018-09-01T01:21:46.686Z,18.50
2018-09-01T01:24:14.293Z,18.30
2018-09-01T01:26:41.867Z,18.20
2018-09-01T01:29:09.705Z,19.00
2018-09-01T01:31:37.298Z,19.80
2018-09-01T01:34:05.049Z,20.30
2018-09-01T01:36:32.613Z,20.60
2018-09-01T01:39:00.255Z,21.00
2018-09-01T01:41:27.852Z,21.30
2018-09-01T01:43:55.483Z,21.20
2018-09-01T01:46:23.070Z,20.80
2018-09-01T01:48:50.701Z,20.50
2018-09-01T01:51:18.317Z,20.60
2018-09-01T01:53:45.988Z,20.70
2018-09-01T01:56:13.585Z,20.80
2018-09-01T01:58:41.228Z,20.30
2018-09-01T02:01:08.828Z,20.20
2018-09-01T02:03:36.544Z,20.20
2018-09-01T02:06:04.199Z,20.20
2018-09-01T02:08:31.812Z,20.10
2018-09-01T02:10:59.528Z,20.60
2018-09-01T02:13:27.108Z,20.80
2018-09-01T02:15:54.703Z,20.90
2018-09-01T02:18:22.301Z,21.10
2018-09-01T02:20:49.923Z,21.20
2018-09-01T02:23:17.611Z,21.00
2018-09-01T02:25:45.212Z,21.00
2018-09-01T02:28:12.842Z,21.30
2018-09-01T02:30:40.455Z,21.60
2018-09-01T02:33:08.019Z,21.70
2018-09-01T02:35:35.624Z,21.80
2018-09-01T02:38:03.475Z,21.90
2018-09-01T02:40:31.169Z,21.90
2018-09-01T02:42:58.755Z,22.00
2018-09-01T02:45:26.371Z,22.00
2018-09-01T02:47:53.978Z,22.00
2018-09-01T02:50:21.657Z,22.00
2018-09-01T02:52:49.368Z,22.00
2018-09-01T02:55:16.996Z,21.70
2018-09-01T02:57:44.851Z,21.20
2018-09-01T03:00:18.518Z,21.30
2018-09-01T03:02:46.099Z,21.50
2018-09-01T03:05:15.180Z,21.60
2018-09-01T03:07:42.811Z,21.50
2018-09-01T03:10:10.580Z,21.40
2018-09-01T03:12:38.349Z,21.40
2018-09-01T03:15:06.741Z,21.60
2018-09-01T03:17:34.322Z,21.60
2018-09-01T03:20:02.041Z,21.70
2018-09-01T03:22:29.700Z,21.80
2018-09-01T03:24:57.339Z,21.90
2018-09-01T03:27:24.912Z,21.70
2018-09-01T03:29:52.728Z,21.50
2018-09-01T03:32:20.473Z,21.30
2018-09-01T03:34:48.092Z,21.40
2018-09-01T03:37:15.707Z,21.60
2018-09-01T03:39:43.431Z,21.60
2018-09-01T03:42:11.028Z,21.60
2018-09-01T03:44:38.603Z,21.70
2018-09-01T03:47:06.189Z,21.80
2018-09-01T03:49:33.845Z,21.90
2018-09-01T03:52:01.469Z,22.00
2018-09-01T03:54:29.075Z,22.10
2018-09-01T03:56:56.652Z,22.10
2018-09-01T03:59:24.371Z,22.00
2018-09-01T04:01:52.016Z,22.00
2018-09-01T04:04:19.642Z,22.10
2018-09-01T04:06:47.216Z,22.10
2018-09-01T04:09:14.906Z,21.40
2018-09-01T04:11:42.461Z,20.80
2018-09-01T04:14:10.152Z,20.20
2018-09-01T04:16:37.763Z,20.30
2018-09-01T04:19:14.838Z,20.10
2018-09-01T04:21:42.507Z,19.80
2018-09-01T04:24:10.103Z,19.00
2018-09-01T04:26:37.699Z,18.80
2018-09-01T04:29:05.300Z,18.60
2018-09-01T04:31:32.859Z,19.30
2018-09-01T04:34:00.477Z,19.70
2018-09-01T04:36:28.059Z,19.10
2018-09-01T04:38:55.707Z,18.50
2018-09-01T04:41:23.356Z,18.80
2018-09-01T04:43:51.019Z,18.10
2018-09-01T04:46:18.615Z,18.40
2018-09-01T04:48:46.197Z,19.10
2018-09-01T04:51:13.853Z,18.70
2018-09-01T04:53:41.431Z,17.90
2018-09-01T04:56:09.063Z,18.30
2018-09-01T04:58:36.635Z,19.10
2018-09-01T05:01:04.384Z,19.40
2018-09-01T05:03:31.830Z,19.20
2018-09-01T05:05:59.448Z,19.30
2018-09-01T05:08:27.030Z,19.50
2018-09-01T05:10:54.672Z,19.80
2018-09-01T05:13:22.247Z,18.90
2018-09-01T05:15:49.871Z,18.10
2018-09-01T05:18:17.485Z,17.60
2018-09-01T05:20:45.083Z,17.00
2018-09-01T05:23:12.650Z,16.70
2018-09-01T05:25:40.687Z,16.70
2018-09-01T05:28:08.335Z,16.80
2018-09-01T05:30:35.984Z,16.90
2018-09-01T05:33:03.668Z,17.70
2018-09-01T05:35:31.316Z,18.40
2018-09-01T05:37:58.931Z,18.70
2018-09-01T05:40:26.527Z,19.20
2018-09-01T05:42:54.154Z,19.70
2018-09-01T05:45:21.747Z,20.20
2018-09-01T05:47:49.372Z,20.30
2018-09-01T05:50:16.978Z,20.20
2018-09-01T05:52:44.567Z,20.40
2018-09-01T05:55:12.177Z,20.80
2018-09-01T05:57:39.767Z,21.00
2018-09-01T06:00:08.066Z,20.60
2018-09-01T06:02:35.663Z,20.30
2018-09-01T06:05:03.767Z,19.50
2018-09-01T06:07:31.400Z,19.60
2018-09-01T06:09:59.025Z,20.00
2018-09-01T06:12:26.603Z,20.40
2018-09-01T06:14:54.242Z,20.80
2018-09-01T06:17:21.934Z,21.30
2018-09-01T06:19:49.536Z,21.50
2018-09-01T06:22:17.116Z,21.40
2018-09-01T06:24:44.693Z,21.30
2018-09-01T06:27:18.006Z,21.20
2018-09-01T06:29:45.820Z,21.20
2018-09-01T06:32:13.504Z,21.30
2018-09-01T06:34:41.131Z,21.50
2018-09-01T06:37:08.779Z,21.80
2018-09-01T06:39:36.399Z,22.00
2018-09-01T06:42:04.032Z,22.10
2018-09-01T06:44:31.685Z,22.20
2018-09-01T06:46:59.271Z,22.30
2018-09-01T06:49:26.940Z,22.40
2018-09-01T06:51:54.571Z,22.40
2018-09-01T06:54:22.158Z,22.20
2018-09-01T06:56:49.775Z,22.20
2018-09-01T06:59:17.398Z,22.20
2018-09-01T07:01:45.003Z,22.10
2018-09-01T07:04:12.635Z,22.10
2018-09-01T07:06:40.348Z,21.90
2018-09-01T07:09:08.276Z,22.00
2018-09-01T07:11:36.075Z,21.90
2018-09-01T07:14:03.711Z,22.10
2018-09-01T07:16:31.511Z,22.20
2018-09-01T07:18:59.121Z,22.00
2018-09-01T07:21:26.872Z,22.10
2018-09-01T07:23:54.547Z,22.10
2018-09-01T07:26:22.220Z,22.00
2018-09-01T07:28:49.828Z,22.00
2018-09-01T07:31:17.677Z,22.00
2018-09-01T07:33:45.111Z,22.30
2018-09-01T07:36:12.875Z,22.50
2018-09-01T07:38:40.478Z,22.70
2018-09-01T07:41:08.105Z,22.70
2018-09-01T07:43:35.750Z,22.80
2018-09-01T07:46:03.393Z,23.00
2018-09-01T07:48:31.031Z,23.10
2018-09-01T07:50:58.652Z,23.20
2018-09-01T07:53:26.255Z,23.40
2018-09-01T07:55:53.864Z,23.70
2018-09-01T07:58:21.471Z,24.00
2018-09-01T08:00:49.123Z,24.00
2018-09-01T08:03:16.923Z,23.90
2018-09-01T08:05:44.555Z,23.90
2018-09-01T08:08:12.157Z,23.70
2018-09-01T08:10:39.744Z,23.70
2018-09-01T08:13:07.343Z,23.60
2018-09-01T08:15:34.903Z,23.60
2018-09-01T08:18:02.555Z,23.70
2018-09-01T08:20:30.156Z,23.90
2018-09-01T08:22:57.836Z,24.10
2018-09-01T08:25:25.647Z,24.40
2018-09-01T08:27:53.297Z,24.50
2018-09-01T08:30:21.218Z,24.60
2018-09-01T08:32:49.134Z,24.70
2018-09-01T08:35:16.800Z,24.80
2018-09-01T08:37:44.516Z,24.90
2018-09-01T08:40:12.214Z,25.20
2018-09-01T08:42:40.944Z,25.50
2018-09-01T08:45:08.611Z,25.70
2018-09-01T08:47:36.366Z,25.90
2018-09-01T08:50:04.259Z,26.30
2018-09-01T08:52:31.896Z,26.70
2018-09-01T08:54:59.469Z,26.80
2018-09-01T08:57:27.067Z,27.10
2018-09-01T08:59:54.678Z,27.20
2018-09-01T09:02:23.540Z,27.40
2018-09-01T09:04:51.287Z,27.50
2018-09-01T09:07:18.999Z,27.40
2018-09-01T09:09:46.776Z,27.50
2018-09-01T09:12:14.608Z,27.60
2018-09-01T09:14:42.221Z,27.50
2018-09-01T09:17:09.861Z,27.60
2018-09-01T09:19:37.491Z,27.70
2018-09-01T09:22:05.118Z,27.60
2018-09-01T09:24:32.729Z,28.00
2018-09-01T09:27:00.339Z,28.90
2018-09-01T09:29:27.944Z,29.60
2018-09-01T09:31:55.536Z,30.10
2018-09-01T09:34:23.126Z,29.90
2018-09-01T09:36:50.723Z,29.70
2018-09-01T09:39:18.345Z,30.00
2018-09-01T09:41:46.055Z,31.00
2018-09-01T09:44:13.662Z,31.60
2018-09-01T09:46:41.312Z,31.20
2018-09-01T09:49:08.980Z,31.90
2018-09-01T09:51:36.588Z,30.80
2018-09-01T09:54:04.291Z,28.80
2018-09-01T09:56:31.919Z,28.40
2018-09-01T09:58:59.598Z,28.50
2018-09-01T10:01:28.308Z,28.70
2018-09-01T10:03:56.345Z,29.10
2018-09-01T10:06:24.089Z,29.30
2018-09-01T10:08:51.703Z,30.20
2018-09-01T10:11:19.411Z,30.50
2018-09-01T10:13:47.010Z,30.10
2018-09-01T10:16:14.620Z,30.30
2018-09-01T10:18:42.214Z,29.50
2018-09-01T10:21:09.836Z,29.60
2018-09-01T10:23:37.433Z,29.90
2018-09-01T10:26:05.128Z,31.00
2018-09-01T10:28:32.773Z,31.60
2018-09-01T10:31:00.435Z,30.70
2018-09-01T10:33:28.155Z,30.00
2018-09-01T10:35:55.735Z,30.20
2018-09-01T10:38:23.612Z,29.80
2018-09-01T10:41:06.481Z,30.00
2018-09-01T10:46:19.743Z,31.70
2018-09-01T10:48:47.441Z,31.30
2018-09-01T10:51:15.381Z,30.10
2018-09-01T10:53:43.002Z,29.10
2018-09-01T10:56:10.843Z,29.80
2018-09-01T10:58:40.332Z,30.60
2018-09-01T11:01:07.967Z,31.50
2018-09-01T11:03:35.592Z,31.70
2018-09-01T11:06:03.268Z,31.70
2018-09-01T11:08:30.876Z,30.90
2018-09-01T11:10:58.583Z,29.60
2018-09-01T11:13:26.171Z,29.20
2018-09-01T11:15:54.775Z,30.20
2018-09-01T11:18:22.338Z,30.30
2018-09-01T11:20:52.840Z,30.30
2018-09-01T11:23:20.371Z,31.40
2018-09-01T11:25:47.987Z,30.60
2018-09-01T11:28:15.662Z,28.70
2018-09-01T11:30:43.276Z,28.90
2018-09-01T11:33:10.932Z,28.70
2018-09-01T11:35:45.240Z,28.20
2018-09-01T11:38:13.780Z,27.60
2018-09-01T11:40:41.384Z,27.20
2018-09-01T11:43:10.986Z,27.00
2018-09-01T11:45:38.483Z,26.70
2018-09-01T11:48:06.151Z,27.40
2018-09-01T11:50:33.742Z,27.00
2018-09-01T11:53:01.474Z,26.40
2018-09-01T11:55:29.086Z,26.80
2018-09-01T11:57:56.685Z,26.80
2018-09-01T12:00:24.300Z,26.70
2018-09-01T12:02:51.904Z,26.30
2018-09-01T12:05:19.508Z,26.00
2018-09-01T12:07:47.121Z,26.00
2018-09-01T12:10:14.738Z,25.90
2018-09-01T12:12:42.469Z,26.40
2018-09-01T12:15:10.078Z,27.00
2018-09-01T12:17:37.796Z,27.10
2018-09-01T12:20:05.637Z,27.30
2018-09-01T12:22:33.356Z,27.30
2018-09-01T12:25:01.975Z,27.20
2018-09-01T12:27:29.600Z,26.90
2018-09-01T12:29:57.211Z,26.40
2018-09-01T12:32:24.776Z,26.00
2018-09-01T12:34:52.379Z,25.70
2018-09-01T12:37:22.794Z,25.60
2018-09-01T12:39:50.435Z,25.60
2018-09-01T12:42:18.016Z,25.70
2018-09-01T12:44:46.459Z,25.90
2018-09-01T12:47:14.049Z,26.00
2018-09-01T12:49:41.708Z,26.20
2018-09-01T12:52:09.308Z,26.40
2018-09-01T12:54:36.908Z,26.50
2018-09-01T12:57:18.569Z,26.60
2018-09-01T12:59:52.191Z,27.00
2018-09-01T13:02:21.398Z,27.10
2018-09-01T13:05:01.343Z,26.60
2018-09-01T13:07:28.927Z,26.20
2018-09-01T13:10:03.171Z,25.90
2018-09-01T13:12:30.768Z,25.90
2018-09-01T13:14:58.348Z,26.10
2018-09-01T13:17:25.990Z,26.00
2018-09-01T13:19:54.460Z,25.90
2018-09-01T13:22:22.091Z,25.70
2018-09-01T13:24:49.717Z,25.70
2018-09-01T13:27:18.178Z,25.70
2018-09-01T13:29:46.580Z,25.70
2018-09-01T13:32:15.051Z,25.70
2018-09-01T13:34:42.759Z,25.80
2018-09-01T13:37:10.379Z,25.90
2018-09-01T13:39:38.000Z,25.90
2018-09-01T13:42:05.635Z,25.90
2018-09-01T13:44:33.314Z,25.80
2018-09-01T13:47:00.931Z,25.70
2018-09-01T13:49:33.460Z,25.60
2018-09-01T13:52:01.064Z,25.60
2018-09-01T13:54:28.667Z,25.50
2018-09-01T13:56:56.315Z,25.50
2018-09-01T13:59:23.928Z,25.50
2018-09-01T14:01:51.592Z,25.50
2018-09-01T14:04:19.200Z,25.50
2018-09-01T14:06:46.804Z,25.50
2018-09-01T14:09:14.427Z,25.50
2018-09-01T14:11:43.003Z,25.50
2018-09-01T14:14:10.634Z,25.40
2018-09-01T14:16:38.243Z,25.40
2018-09-01T14:19:06.134Z,25.40
2018-09-01T14:21:33.796Z,25.30
2018-09-01T14:24:01.411Z,25.50
2018-09-01T14:26:33.848Z,25.90
2018-09-01T14:29:01.421Z,26.00
2018-09-01T14:31:29.028Z,26.30
2018-09-01T14:33:56.631Z,26.70
2018-09-01T14:36:25.348Z,26.60
2018-09-01T14:38:52.969Z,26.40
2018-09-01T14:41:20.606Z,26.20
2018-09-01T14:43:49.257Z,26.20
2018-09-01T14:46:18.693Z,26.10
2018-09-01T14:48:46.296Z,26.10
2018-09-01T14:51:17.705Z,26.00
2018-09-01T14:53:45.324Z,25.90
2018-09-01T14:56:13.784Z,26.00
2018-09-01T14:58:41.428Z,26.00
2018-09-01T15:01:08.996Z,26.00
2018-09-01T15:03:38.517Z,25.90
2018-09-01T15:06:08.052Z,25.80
2018-09-01T15:08:35.664Z,25.70
2018-09-01T15:11:03.267Z,25.60
2018-09-01T15:13:30.876Z,25.60
2018-09-01T15:15:58.515Z,25.60
2018-09-01T15:18:26.155Z,25.60
2018-09-01T15:20:53.742Z,25.60
2018-09-01T15:23:21.434Z,25.70
2018-09-01T15:25:49.278Z,25.70
2018-09-01T15:28:16.847Z,25.70
2018-09-01T15:30:44.632Z,25.80
2018-09-01T15:33:12.199Z,26.00
2018-09-01T15:35:39.817Z,26.10
2018-09-01T15:38:07.419Z,25.90
2018-09-01T15:40:35.077Z,25.70
2018-09-01T15:43:02.858Z,25.70
2018-09-01T15:45:30.680Z,25.60
2018-09-01T15:47:58.430Z,25.50
2018-09-01T15:50:26.040Z,25.50
2018-09-01T15:52:53.715Z,25.70
2018-09-01T15:55:21.321Z,26.00
2018-09-01T15:57:49.027Z,26.20
2018-09-01T16:00:16.610Z,26.00
2018-09-01T16:02:44.208Z,25.70
2018-09-01T16:05:11.819Z,25.50
2018-09-01T16:07:39.427Z,25.30
2018-09-01T16:10:07.087Z,25.20
2018-09-01T16:12:34.707Z,25.10
2018-09-01T16:15:02.343Z,25.10
2018-09-01T16:17:30.094Z,25.00
2018-09-01T16:19:57.799Z,25.00
2018-09-01T16:22:25.385Z,24.70
2018-09-01T16:24:52.987Z,24.60
2018-09-01T16:27:20.665Z,24.60
2018-09-01T16:29:48.316Z,24.60
2018-09-01T16:32:16.069Z,24.70
2018-09-01T16:34:43.785Z,24.80
2018-09-01T16:37:11.355Z,24.80
2018-09-01T16:39:39.035Z,24.80
2018-09-01T16:42:06.684Z,24.70
2018-09-01T16:44:34.455Z,24.70
2018-09-01T16:47:02.259Z,24.70
2018-09-01T16:49:29.954Z,24.70
2018-09-01T16:51:57.793Z,24.60
2018-09-01T16:54:25.437Z,24.60
2018-09-01T16:56:53.224Z,24.60
2018-09-01T16:59:20.825Z,24.60
2018-09-01T17:01:48.423Z,24.60
2018-09-01T17:04:16.061Z,24.60
2018-09-01T17:06:43.655Z,24.60
2018-09-01T17:09:11.316Z,24.60
2018-09-01T17:11:38.940Z,24.60
2018-09-01T17:14:07.624Z,24.60
2018-09-01T17:16:35.242Z,24.60
2018-09-01T17:19:02.935Z,24.60
2018-09-01T17:21:30.576Z,24.60
2018-09-01T17:23:58.243Z,24.60
2018-09-01T17:26:25.900Z,24.60
2018-09-01T17:28:54.573Z,24.60
2018-09-01T17:31:22.195Z,24.60
2018-09-01T17:33:49.879Z,24.60
2018-09-01T17:36:17.542Z,24.50
2018-09-01T17:38:45.155Z,24.50
2018-09-01T17:41:12.815Z,24.50
2018-09-01T17:43:40.411Z,24.50
2018-09-01T17:46:08.095Z,24.50
2018-09-01T17:48:35.687Z,24.60
2018-09-01T17:51:03.329Z,24.50
2018-09-01T17:53:30.976Z,24.50
2018-09-01T17:55:58.765Z,24.40
2018-09-01T17:58:26.392Z,24.40
2018-09-01T18:00:54.095Z,24.00
2018-09-01T18:03:21.720Z,24.00
2018-09-01T18:05:49.348Z,24.10
2018-09-01T18:08:17.176Z,24.10
2018-09-01T18:10:44.908Z,24.10
2018-09-01T18:13:12.389Z,24.20
2018-09-01T18:15:40.069Z,24.30
2018-09-01T18:18:08.360Z,24.20
2018-09-01T18:20:35.993Z,24.10
2018-09-01T18:23:03.602Z,24.00
2018-09-01T18:25:31.208Z,24.00
2018-09-01T18:27:58.810Z,24.10
2018-09-01T18:30:26.439Z,24.10
2018-09-01T18:32:54.007Z,24.20
2018-09-01T18:35:21.640Z,24.10
2018-09-01T18:37:49.235Z,24.00
2018-09-01T18:40:16.831Z,24.00
2018-09-01T18:42:44.439Z,24.00
2018-09-01T18:45:12.058Z,24.00
2018-09-01T18:47:39.753Z,24.00
2018-09-01T18:50:11.709Z,23.90
2018-09-01T18:52:39.751Z,23.90
2018-09-01T18:55:07.407Z,23.90
2018-09-01T18:57:35.055Z,23.90
2018-09-01T19:00:02.716Z,23.90
2018-09-01T19:02:30.436Z,23.90
2018-09-01T19:04:58.145Z,23.90
2018-09-01T19:07:25.672Z,23.90
2018-09-01T19:09:53.249Z,23.90
2018-09-01T19:12:20.920Z,23.90
2018-09-01T19:14:48.508Z,23.90
2018-09-01T19:17:16.112Z,23.90
2018-09-01T19:19:43.715Z,23.90
2018-09-01T19:22:11.580Z,23.90
2018-09-01T19:24:39.231Z,23.90
2018-09-01T19:27:06.986Z,24.00
2018-09-01T19:29:34.614Z,24.00
2018-09-01T19:32:02.331Z,24.00
2018-09-01T19:34:29.940Z,24.00
2018-09-01T19:36:57.638Z,24.10
2018-09-01T19:39:25.251Z,24.10
2018-09-01T19:41:52.844Z,24.00
2018-09-01T19:44:20.538Z,24.00
2018-09-01T19:46:48.173Z,24.00
2018-09-01T19:49:15.786Z,24.10
2018-09-01T19:51:43.430Z,24.10
2018-09-01T19:54:11.109Z,24.10
2018-09-01T19:56:38.996Z,24.20
2018-09-01T19:59:06.664Z,24.10
2018-09-01T20:01:34.292Z,24.00
2018-09-01T20:04:01.904Z,23.80
2018-09-01T20:06:29.699Z,23.70
2018-09-01T20:08:57.597Z,23.80
2018-09-01T20:11:25.256Z,23.50
2018-09-01T20:13:53.179Z,23.20
2018-09-01T20:16:20.852Z,23.10
2018-09-01T20:18:48.481Z,23.20
2018-09-01T20:21:16.168Z,23.30
2018-09-01T20:23:43.950Z,23.30
2018-09-01T20:26:11.681Z,23.40
2018-09-01T20:28:39.332Z,23.50
2018-09-01T20:31:07.070Z,23.30
2018-09-01T20:33:34.785Z,23.40
2018-09-01T20:36:02.664Z,23.10
2018-09-01T20:38:30.308Z,22.70
2018-09-01T20:40:58.200Z,22.70
2018-09-01T20:43:25.899Z,22.80
2018-09-01T20:45:53.493Z,22.80
2018-09-01T20:48:21.262Z,22.80
2018-09-01T20:50:48.935Z,23.00
2018-09-01T20:53:16.556Z,23.20
2018-09-01T20:55:44.135Z,23.30
2018-09-01T20:58:11.858Z,23.40
2018-09-01T21:00:39.691Z,23.20
2018-09-01T21:03:07.373Z,22.90
2018-09-01T21:05:35.177Z,22.60
2018-09-01T21:08:03.232Z,22.80
2018-09-01T21:10:31.036Z,22.80
2018-09-01T21:12:58.652Z,22.90
2018-09-01T21:15:26.303Z,22.90
2018-09-01T21:17:53.994Z,22.50
2018-09-01T21:20:21.744Z,22.50
2018-09-01T21:22:49.437Z,22.70
2018-09-01T21:25:17.268Z,22.60
2018-09-01T21:27:44.979Z,22.60
2018-09-01T21:30:12.800Z,22.90
2018-09-01T21:32:40.446Z,23.00
2018-09-01T21:35:08.097Z,23.00
2018-09-01T21:37:35.708Z,23.20
2018-09-01T21:40:03.544Z,23.30
2018-09-01T21:42:31.393Z,23.00
2018-09-01T21:44:59.004Z,23.10
2018-09-01T21:47:26.684Z,23.20
2018-09-01T21:49:54.280Z,22.80
2018-09-01T21:52:21.964Z,21.90
2018-09-01T21:54:49.595Z,21.80
2018-09-01T21:57:17.189Z,22.00
2018-09-01T21:59:44.929Z,21.60
2018-09-01T22:02:18.365Z,21.90
2018-09-01T22:04:51.543Z,21.80
2018-09-01T22:07:20.944Z,21.60
2018-09-01T22:09:48.900Z,21.30
2018-09-01T22:12:16.808Z,21.30
2018-09-01T22:14:44.403Z,21.60
2018-09-01T22:17:12.003Z,21.80
2018-09-01T22:19:39.575Z,21.70
2018-09-01T22:22:07.191Z,21.80
2018-09-01T22:24:34.842Z,21.50
2018-09-01T22:27:02.523Z,21.30
2018-09-01T22:29:30.130Z,21.00
2018-09-01T22:31:57.748Z,20.70
2018-09-01T22:34:25.519Z,20.90
2018-09-01T22:36:53.497Z,20.40
2018-09-01T22:39:21.135Z,20.80
2018-09-01T22:41:48.932Z,21.40
2018-09-01T22:44:16.548Z,21.60
2018-09-01T22:46:44.212Z,22.10
2018-09-01T22:49:12.075Z,22.50
2018-09-01T22:51:39.659Z,22.10
2018-09-01T22:54:07.412Z,21.00
2018-09-01T22:56:35.046Z,20.30
2018-09-01T22:59:02.731Z,20.00
2018-09-01T23:01:30.340Z,20.10
2018-09-01T23:03:57.986Z,20.80
2018-09-01T23:06:25.678Z,21.20
2018-09-01T23:08:53.321Z,21.50
2018-09-01T23:11:20.908Z,21.90
2018-09-01T23:13:48.688Z,21.60
2018-09-01T23:16:16.259Z,20.80
2018-09-01T23:18:44.061Z,20.70
2018-09-01T23:21:11.736Z,21.00
2018-09-01T23:23:39.499Z,20.90
2018-09-01T23:26:07.143Z,20.90
2018-09-01T23:28:34.785Z,21.00
2018-09-01T23:31:02.399Z,20.80
2018-09-01T23:33:30.102Z,21.10
2018-09-01T23:35:57.744Z,21.60
2018-09-01T23:38:25.355Z,21.90
2018-09-01T23:40:52.988Z,21.80
2018-09-01T23:43:20.702Z,21.60
2018-09-01T23:45:48.323Z,21.40
2018-09-01T23:48:15.960Z,21.60
2018-09-01T23:50:43.567Z,22.00
2018-09-01T23:53:11.259Z,22.30
2018-09-01T23:55:38.848Z,22.50
2018-09-01T23:58:06.519Z,22.60
